Arlington, VA

6:52 AM EST on February 28, 2017 (GMT -0500)
Yorktown | | Change Station

Elev 387 ft 38.90 °N, 77.13 °W | Updated 22 seconds ago

Partly Cloudy
Partly Cloudy
41.5 °F
Feels Like 42 °F
N
0.0
Wind Variable Wind from NW

Today
High -- | Low -- °F
--% Chance of Precip.
Yesterday
High -- | Low -- °F
Precip. -- in
Pressure 30.32 in
Visibility 10.0 miles
Clouds Few 7500 ft
Scattered Clouds 10000 ft
Mostly Cloudy 20000 ft
Windchill 42 °F
Dew Point 33 °F
Humidity 73%
Rainfall 0.00 in
Snow Depth Not available.
6:42 AM 6:00 PM
Waxing Crescent, 4% visible
METAR KDCA 281052Z 03003KT 10SM FEW075 SCT100 BKN200 09/04 A3032 RMK AO2 SLP268 T00940044
Pressure 30.32 in
Visibility 10.0 miles
Clouds Few 7500 ft
Scattered Clouds 10000 ft
Mostly Cloudy 20000 ft
Windchill 42 °F
Dew Point 33 °F
Humidity 73%
Rainfall 0.00 in
Snow Depth Not available.
6:42 AM 6:00 PM
Waxing Crescent, 4% visible
METAR KDCA 281052Z 03003KT 10SM FEW075 SCT100 BKN200 09/04 A3032 RMK AO2 SLP268 T00940044

Get Your Daily Forecast Email!

Thanks for signing up!

Be on the lookout for a verification email in your inbox.

You'll start receiving the daily forecast at 8 AM.

×

10-Day Weather Forecast

Almanac

Astronomy

Feb. 28, 2017 Rise Set
Actual Time
Civil Twilight
Nautical Twilight
Astronomical Twilight
Moon
Length of Visible Light
Length of Day
Tomorrow will be .
, % of the Moon is Illuminated

Today's Extremes

State Highs State Lows

Community

WunderPhotos

Upload Photos

1,962,540 photos uploaded!

WunderBlog® & News

Nearby

Air Quality

  Air Quality AQ Index Pollutant
Not available.

Snow Depth

Station Depth Elevation

Earthquake Activity

City Distance Mag. Time & Date
Minimum magnitude displayed is 2.5.

Coastal Water Temperatures

Place Temperature

Stations

Nearby Weather Stations

Station Location Temp. Windchill Dew Point Humidity Wind Precip. Elev Updated Type
                   

Watches & Warnings

There are currently no watches in effect.